This is the latest recevied weather packets stored in our database for station/object IV6ZJU-13. If no packets are shown the sender has not sent any weather packets the latest 10 day(s).
| Time | Temp. | Humidity | Pressure | Rain* | Wind** | Luminosity | Snow |
|---|---|---|---|---|---|---|---|
| 1777741481 | 26.67° C | 27% | 1012.6 hPa | - | - | - | - |
| 1777740588 | 28.33° C | 23% | 1012.7 hPa | - | - | - | - |
| 1777739681 | 28.89° C | 21% | 1012.9 hPa | - | - | - | - |
| 1777738780 | 27.78° C | 21% | 1013 hPa | - | - | - | - |
| 1777737886 | 27.22° C | 22% | 1013.2 hPa | - | - | - | - |
| 1777736985 | 26.11° C | 22% | 1013.2 hPa | - | - | - | - |
| 1777736085 | 25.56° C | 21% | 1013.5 hPa | - | - | - | - |
| 1777735185 | 25.56° C | 23% | 1013.8 hPa | - | - | - | - |
| 1777734285 | 24.44° C | 26% | 1014 hPa | - | - | - | - |
| 1777732485 | 22.78° C | 32% | 1014.3 hPa | - | - | - | - |
| 1777731585 | 20.56° C | 38% | 1014.4 hPa | - | - | - | - |
| 1777730684 | 18.89° C | 45% | 1014.6 hPa | - | - | - | - |
| 1777729784 | 18.33° C | 46% | 1014.8 hPa | - | - | - | - |
| 1777728884 | 18.33° C | 41% | 1014.9 hPa | - | - | - | - |
| 1777727985 | 17.78° C | 45% | 1015.1 hPa | - | - | - | - |
| 1777727083 | 17.78° C | 41% | 1015.1 hPa | - | - | - | - |
| 1777726185 | 17.78° C | 44% | 1015.2 hPa | - | - | - | - |
| 1777725283 | 17.78° C | 41% | 1015.4 hPa | - | - | - | - |
| 1777724385 | 17.22° C | 39% | 1015.5 hPa | - | - | - | - |
| 1777723483 | 17.22° C | 37% | 1015.6 hPa | - | - | - | - |
| 1777722585 | 17.22° C | 35% | 1015.6 hPa | - | - | - | - |
| 1777721683 | 17.22° C | 38% | 1015.7 hPa | - | - | - | - |
| 1777720785 | 16.67° C | 46% | 1015.9 hPa | - | - | - | - |
| 1777719882 | 16.67° C | 46% | 1016 hPa | - | - | - | - |
| 1777718985 | 16.67° C | 51% | 1016.1 hPa | - | - | - | - |
* Rain since midnight (hover to see other rain measurements)
** Current wind speed in m/s (hover to see current wind gust speed)